Time;durP1;ratioP1;P1;durP2;ratioP2;P2;SDS_P1;SDS_P2;PMS_P1;PMS_P2;Temp;Humidity;BMP_temperature;BMP_pressure;BME280_temperature;BME280_humidity;BME280_pressure;Samples;Min_cycle;Max_cycle;Signal;HPM_P1;HPM_P2
2022/02/22 00:00:35;;;;;;;13.10;3.40;;;4.90;99.90;;;;;;5033779;28;20230;-64
2022/02/22 00:03:03;;;;;;;19.65;4.43;;;4.90;99.90;;;;;;5033389;28;20198;-63
2022/02/22 00:05:30;;;;;;;13.20;3.20;;;4.90;99.90;;;;;;5034021;28;20205;-64
2022/02/22 00:07:57;;;;;;;16.05;4.28;;;4.90;99.90;;;;;;5033650;28;20210;-65
2022/02/22 00:10:24;;;;;;;9.88;2.47;;;4.90;99.90;;;;;;5033414;28;20209;-63
2022/02/22 00:12:52;;;;;;;7.57;2.22;;;4.70;99.90;;;;;;5033770;28;20202;-63
2022/02/22 00:15:19;;;;;;;10.52;2.75;;;4.40;99.90;;;;;;5033316;28;20225;-64
2022/02/22 00:17:46;;;;;;;8.52;3.20;;;4.20;99.90;;;;;;5033408;28;20212;-65
2022/02/22 00:20:16;;;;;;;12.68;4.20;;;4.00;99.90;;;;;;5033123;28;20674;-63
2022/02/22 00:22:43;;;;;;;14.55;3.28;;;3.90;99.90;;;;;;5033481;28;20559;-63
2022/02/22 00:25:12;;;;;;;6.85;2.33;;;3.80;99.90;;;;;;5035526;28;20194;-64
2022/02/22 00:27:40;;;;;;;9.55;2.58;;;3.70;99.90;;;;;;5037524;28;20206;-63
2022/02/22 00:30:09;;;;;;;14.23;4.30;;;3.70;99.90;;;;;;5037225;28;20707;-63
2022/02/22 00:32:39;;;;;;;18.48;4.30;;;3.70;99.90;;;;;;5037500;28;20237;-63
2022/02/22 00:35:08;;;;;;;15.13;2.72;;;3.70;99.90;;;;;;5037657;28;20222;-63
2022/02/22 00:37:36;;;;;;;13.90;3.42;;;3.70;99.90;;;;;;5037250;28;20209;-64
2022/02/22 00:40:04;;;;;;;11.40;3.38;;;3.70;99.90;;;;;;5037544;28;20209;-63
2022/02/22 00:42:32;;;;;;;9.98;3.30;;;3.80;99.90;;;;;;5037274;28;20225;-64
2022/02/22 00:44:59;;;;;;;12.80;3.35;;;3.90;99.90;;;;;;5037590;28;20206;-64
2022/02/22 00:47:27;;;;;;;10.45;2.42;;;4.00;99.90;;;;;;5038134;28;20261;-64
2022/02/22 00:49:54;;;;;;;17.20;3.75;;;4.00;99.90;;;;;;5041707;28;20225;-63
2022/02/22 00:52:21;;;;;;;11.43;3.42;;;4.10;99.90;;;;;;5052969;28;20222;-64
2022/02/22 00:54:50;;;;;;;24.92;4.68;;;4.10;99.90;;;;;;5042764;28;20219;-62
2022/02/22 00:57:17;;;;;;;13.20;4.40;;;4.20;99.90;;;;;;5037945;28;20214;-62
2022/02/22 00:59:44;;;;;;;21.27;4.10;;;4.20;99.90;;;;;;5037408;28;20613;-63
2022/02/22 01:02:11;;;;;;;16.27;4.20;;;4.20;99.90;;;;;;5036366;28;20218;-64
2022/02/22 01:04:38;;;;;;;19.90;4.20;;;4.20;99.90;;;;;;5036378;28;20203;-63
2022/02/22 01:07:06;;;;;;;18.50;3.92;;;4.20;99.90;;;;;;5036589;28;20206;-63
2022/02/22 01:09:33;;;;;;;20.80;4.22;;;4.20;99.90;;;;;;5036536;28;20210;-63
2022/02/22 01:12:01;;;;;;;19.83;4.38;;;4.20;99.90;;;;;;5036126;28;20225;-64
2022/02/22 01:14:28;;;;;;;23.35;3.78;;;4.20;99.90;;;;;;5036437;28;20219;-63
2022/02/22 01:16:55;;;;;;;23.02;4.90;;;4.30;99.90;;;;;;5036169;28;20203;-64
2022/02/22 01:19:22;;;;;;;21.10;4.72;;;4.30;99.90;;;;;;5036054;28;20198;-63
2022/02/22 01:21:49;;;;;;;16.27;4.43;;;4.30;99.90;;;;;;5036194;28;20222;-63
2022/02/22 01:24:16;;;;;;;17.83;4.35;;;4.30;99.90;;;;;;5036427;28;20194;-64
2022/02/22 01:26:44;;;;;;;17.63;4.97;;;4.30;99.90;;;;;;5036086;28;20206;-63
2022/02/22 01:29:12;;;;;;;16.45;4.15;;;4.30;99.90;;;;;;5036141;28;20199;-63
2022/02/22 01:31:39;;;;;;;30.48;4.80;;;4.30;99.90;;;;;;5035646;28;20245;-63
2022/02/22 01:34:06;;;;;;;21.80;5.65;;;4.30;99.90;;;;;;5036095;28;20604;-63
2022/02/22 01:36:34;;;;;;;17.40;4.90;;;4.30;99.90;;;;;;5035310;28;20202;-63
2022/02/22 01:39:01;;;;;;;26.67;5.30;;;4.30;99.90;;;;;;5036137;28;20236;-62
2022/02/22 01:41:29;;;;;;;21.55;5.35;;;4.30;99.90;;;;;;5035955;28;20237;-63
2022/02/22 01:43:56;;;;;;;18.55;4.20;;;4.30;99.90;;;;;;5040926;28;20199;-63
2022/02/22 01:46:25;;;;;;;23.75;4.57;;;4.30;99.90;;;;;;5043197;28;20210;-63
2022/02/22 01:48:52;;;;;;;17.85;4.85;;;4.30;99.90;;;;;;5041274;28;20240;-63
2022/02/22 01:51:20;;;;;;;12.27;3.97;;;4.20;99.90;;;;;;5038278;28;20222;-63
2022/02/22 01:53:47;;;;;;;18.38;3.55;;;4.20;99.90;;;;;;5037528;28;20209;-63
2022/02/22 01:56:17;;;;;;;19.48;5.03;;;4.20;99.90;;;;;;5037585;28;20209;-63
2022/02/22 01:58:44;;;;;;;15.25;4.07;;;4.20;99.90;;;;;;5036111;28;20183;-63
2022/02/22 02:01:12;;;;;;;14.48;3.60;;;4.20;99.90;;;;;;5035590;28;20230;-63
2022/02/22 02:03:40;;;;;;;24.00;6.00;;;4.10;99.90;;;;;;5035303;28;20202;-64
2022/02/22 02:06:07;;;;;;;18.13;4.72;;;4.10;99.90;;;;;;5035342;28;20664;-64
2022/02/22 02:08:34;;;;;;;23.95;4.38;;;4.20;99.90;;;;;;5035268;28;20678;-64
2022/02/22 02:11:01;;;;;;;18.58;4.78;;;4.20;99.90;;;;;;5035640;28;20226;-63
2022/02/22 02:13:28;;;;;;;10.45;3.17;;;4.20;99.90;;;;;;5034940;28;20666;-63
2022/02/22 02:15:55;;;;;;;13.10;3.75;;;4.30;99.90;;;;;;5034932;28;20222;-63
2022/02/22 02:18:22;;;;;;;16.02;4.07;;;4.30;99.90;;;;;;5035167;28;20203;-64
2022/02/22 02:20:51;;;;;;;22.75;4.72;;;4.30;99.90;;;;;;5035164;28;20715;-63
2022/02/22 02:23:19;;;;;;;5.72;2.13;;;4.30;99.90;;;;;;5035233;28;20217;-63
2022/02/22 02:25:48;;;;;;;27.15;4.95;;;4.40;99.90;;;;;;5035119;28;20198;-63
2022/02/22 02:28:15;;;;;;;19.00;5.53;;;4.40;99.90;;;;;;5035153;28;20576;-63
2022/02/22 02:30:42;;;;;;;21.80;5.18;;;4.40;99.90;;;;;;5034466;28;20241;-62
2022/02/22 02:33:10;;;;;;;18.38;4.22;;;4.40;99.90;;;;;;5034872;28;20214;-64
2022/02/22 02:35:37;;;;;;;22.40;6.10;;;4.50;99.90;;;;;;5034683;28;20264;-64
2022/02/22 02:38:04;;;;;;;19.25;4.13;;;4.50;99.90;;;;;;5034748;28;20202;-63
2022/02/22 02:40:32;;;;;;;20.48;4.95;;;4.50;99.90;;;;;;5034312;28;20568;-63
2022/02/22 02:42:59;;;;;;;19.42;5.55;;;4.50;99.90;;;;;;5034715;28;20206;-62
2022/02/22 02:45:26;;;;;;;19.70;4.20;;;4.50;99.90;;;;;;5034525;28;20198;-62
2022/02/22 02:47:53;;;;;;;21.88;4.65;;;4.50;99.90;;;;;;5033648;28;20260;-64
2022/02/22 02:50:20;;;;;;;16.63;3.75;;;4.50;99.90;;;;;;5035756;28;20671;-63
2022/02/22 02:52:47;;;;;;;17.38;4.18;;;4.50;99.90;;;;;;5042572;28;20207;-63
2022/02/22 02:55:15;;;;;;;12.55;3.20;;;4.50;99.90;;;;;;5047462;28;20229;-64
2022/02/22 02:57:43;;;;;;;16.42;4.13;;;4.40;99.90;;;;;;5055125;28;20202;-64
2022/02/22 03:00:11;;;;;;;9.30;3.80;;;4.40;99.90;;;;;;5055751;28;20202;-64
2022/02/22 03:02:39;;;;;;;13.35;3.47;;;4.40;99.90;;;;;;5057062;28;20230;-64
2022/02/22 03:05:06;;;;;;;22.90;5.22;;;4.30;99.90;;;;;;5051306;28;20564;-63
2022/02/22 03:07:34;;;;;;;9.80;2.75;;;4.30;99.90;;;;;;5036624;28;20206;-63
2022/02/22 03:10:01;;;;;;;6.80;3.20;;;4.30;99.90;;;;;;5045735;28;20203;-64
2022/02/22 03:12:28;;;;;;;13.90;3.58;;;4.30;99.90;;;;;;5050597;28;20238;-65
2022/02/22 03:14:56;;;;;;;12.05;4.75;;;4.30;99.90;;;;;;5047574;28;20219;-65
2022/02/22 03:17:23;;;;;;;11.35;2.22;;;4.40;99.90;;;;;;5044813;28;20269;-64
2022/02/22 03:19:50;;;;;;;13.93;3.80;;;4.30;99.90;;;;;;5040195;28;20221;-63
2022/02/22 03:22:18;;;;;;;12.73;3.70;;;4.30;99.90;;;;;;5037085;28;20222;-65
2022/02/22 03:24:45;;;;;;;9.50;2.47;;;4.20;99.90;;;;;;5034776;28;20198;-64
2022/02/22 03:27:12;;;;;;;11.18;2.90;;;4.20;99.90;;;;;;5034436;28;20206;-65
2022/02/22 03:29:39;;;;;;;13.18;3.08;;;4.10;99.90;;;;;;5033995;28;20210;-64
2022/02/22 03:32:08;;;;;;;14.93;3.63;;;4.10;99.90;;;;;;5033439;28;20667;-64
2022/02/22 03:34:35;;;;;;;7.72;2.80;;;4.00;99.90;;;;;;5033966;28;20213;-64
2022/02/22 03:37:02;;;;;;;9.25;3.28;;;4.00;99.90;;;;;;5033863;28;20210;-64
2022/02/22 03:39:29;;;;;;;13.82;3.20;;;3.90;99.90;;;;;;5033745;28;20202;-64
2022/02/22 03:41:57;;;;;;;22.58;4.20;;;3.90;99.90;;;;;;5033636;28;20230;-65
2022/02/22 03:44:24;;;;;;;13.50;3.90;;;3.90;99.90;;;;;;5033735;28;20202;-64
2022/02/22 03:46:51;;;;;;;16.83;3.78;;;3.90;99.90;;;;;;5033735;28;20202;-63
2022/02/22 03:49:19;;;;;;;20.08;4.05;;;3.90;99.90;;;;;;5033665;28;20570;-63
2022/02/22 03:51:47;;;;;;;13.52;3.85;;;3.90;99.90;;;;;;5033429;28;20226;-63
2022/02/22 03:54:14;;;;;;;9.82;2.22;;;3.90;99.90;;;;;;5037139;28;20554;-63
2022/02/22 03:56:41;;;;;;;13.85;3.53;;;3.90;99.90;;;;;;5037498;28;20226;-65
2022/02/22 03:59:08;;;;;;;12.90;3.78;;;3.90;99.90;;;;;;5033687;28;20203;-63
2022/02/22 04:01:35;;;;;;;12.35;4.15;;;3.90;99.90;;;;;;5033220;28;20732;-63
2022/02/22 04:04:02;;;;;;;28.00;4.22;;;3.90;99.90;;;;;;5033697;28;20225;-64
2022/02/22 04:09:21;;;;;;;18.93;4.17;;;3.80;99.90;;;;;;5106865;27;1390945;-63
2022/02/22 04:11:48;;;;;;;16.58;4.32;;;3.90;99.90;;;;;;5118654;28;20548;-63
2022/02/22 04:14:15;;;;;;;25.77;5.00;;;3.90;99.90;;;;;;5111544;28;20222;-63
2022/02/22 04:16:42;;;;;;;19.52;4.82;;;3.90;99.90;;;;;;5111524;28;20204;-64
2022/02/22 04:19:09;;;;;;;18.63;5.53;;;3.90;99.90;;;;;;5111814;28;20695;-63
2022/02/22 04:21:37;;;;;;;15.85;4.55;;;4.00;99.90;;;;;;5129712;22;20223;-59
2022/02/22 04:24:04;;;;;;;19.17;4.95;;;4.00;99.90;;;;;;5090141;28;20197;-59
2022/02/22 04:26:33;;;;;;;20.75;4.85;;;4.00;99.90;;;;;;5090071;28;20199;-59
2022/02/22 04:29:01;;;;;;;13.95;4.10;;;4.00;99.90;;;;;;5089976;28;20226;-59
2022/02/22 04:31:28;;;;;;;14.40;3.88;;;4.00;99.90;;;;;;5095242;28;20249;-59
2022/02/22 04:33:55;;;;;;;22.42;5.30;;;3.90;99.90;;;;;;5110870;28;20574;-59
2022/02/22 04:36:22;;;;;;;18.65;3.75;;;3.90;99.90;;;;;;5110399;28;20196;-59
2022/02/22 04:38:50;;;;;;;18.58;5.15;;;3.90;99.90;;;;;;5110370;28;20195;-59
2022/02/22 04:41:17;;;;;;;14.38;4.18;;;3.90;99.90;;;;;;5110135;28;20228;-60
2022/02/22 04:43:45;;;;;;;17.85;5.32;;;3.90;99.90;;;;;;5110475;28;20301;-59
2022/02/22 04:46:12;;;;;;;15.07;4.60;;;3.90;99.90;;;;;;5110442;28;20199;-59
2022/02/22 04:48:39;;;;;;;12.20;4.38;;;3.90;99.90;;;;;;5110305;28;20220;-59
2022/02/22 04:51:06;;;;;;;20.48;5.70;;;4.00;99.90;;;;;;5110160;28;20204;-59
2022/02/22 04:53:33;;;;;;;20.90;3.80;;;3.90;99.90;;;;;;5110214;28;20211;-59
2022/02/22 04:56:00;;;;;;;18.58;4.60;;;4.00;99.90;;;;;;5109817;28;20196;-59
2022/02/22 04:58:27;;;;;;;15.38;5.00;;;4.00;99.90;;;;;;5110155;28;20222;-59
2022/02/22 05:00:56;;;;;;;15.30;4.85;;;4.10;99.90;;;;;;5110653;28;20310;-60
2022/02/22 05:03:23;;;;;;;10.55;4.00;;;4.10;99.90;;;;;;5110188;28;20211;-59
2022/02/22 05:05:50;;;;;;;9.15;3.42;;;4.10;99.90;;;;;;5109872;28;20199;-59
2022/02/22 05:08:17;;;;;;;6.85;2.78;;;4.10;99.90;;;;;;5109732;28;20718;-59
2022/02/22 05:10:44;;;;;;;9.60;2.97;;;3.90;99.90;;;;;;5109576;28;20668;-59
2022/02/22 05:13:11;;;;;;;16.13;4.43;;;3.90;99.90;;;;;;5109827;28;20227;-58
2022/02/22 05:15:38;;;;;;;12.80;4.80;;;3.80;99.90;;;;;;5109701;28;20207;-58
2022/02/22 05:18:07;;;;;;;23.48;4.78;;;3.80;99.90;;;;;;5109487;28;20207;-58
2022/02/22 05:20:34;;;;;;;14.02;4.25;;;3.70;99.90;;;;;;5097290;28;20617;-58
2022/02/22 05:23:01;;;;;;;18.52;4.88;;;3.60;99.90;;;;;;5095677;28;20715;-58
2022/02/22 05:25:29;;;;;;;19.67;5.10;;;3.60;99.90;;;;;;5096005;28;20209;-57
2022/02/22 05:27:56;;;;;;;19.35;5.40;;;3.50;99.90;;;;;;5095795;28;20215;-58
2022/02/22 05:30:23;;;;;;;20.33;4.35;;;3.50;99.90;;;;;;5096249;28;20200;-58
2022/02/22 05:32:50;;;;;;;19.17;5.40;;;3.50;99.90;;;;;;5096092;28;20220;-58
2022/02/22 05:35:18;;;;;;;18.98;5.22;;;3.40;99.90;;;;;;5095961;28;20201;-58
2022/02/22 05:37:45;;;;;;;17.13;4.97;;;3.40;99.90;;;;;;5095940;28;20199;-58
2022/02/22 05:40:13;;;;;;;28.70;5.93;;;3.40;99.90;;;;;;5095993;28;20197;-58
2022/02/22 05:42:41;;;;;;;20.70;4.60;;;3.40;99.90;;;;;;5095714;28;20228;-58
2022/02/22 05:45:09;;;;;;;19.63;4.40;;;3.40;99.90;;;;;;5095866;28;20207;-58
2022/02/22 05:47:36;;;;;;;21.30;3.83;;;3.40;99.90;;;;;;5095919;28;20211;-58
2022/02/22 05:50:03;;;;;;;17.10;4.88;;;3.40;99.90;;;;;;5095948;28;20212;-58
2022/02/22 05:52:32;;;;;;;26.83;4.93;;;3.40;99.90;;;;;;5095810;28;20267;-59
2022/02/22 05:54:59;;;;;;;22.25;5.70;;;3.50;99.90;;;;;;5095410;28;20679;-58
2022/02/22 05:57:26;;;;;;;10.73;3.40;;;3.50;99.90;;;;;;5095470;28;20675;-58
2022/02/22 05:59:53;;;;;;;20.75;4.93;;;3.50;99.90;;;;;;5095554;28;20744;-58
2022/02/22 06:02:20;;;;;;;23.98;7.43;;;3.40;99.90;;;;;;5095583;28;20228;-57
2022/02/22 06:04:47;;;;;;;17.40;4.25;;;3.40;99.90;;;;;;5096209;28;20201;-57
2022/02/22 06:07:19;;;;;;;19.98;4.60;;;3.40;99.90;;;;;;5095685;28;20610;-58
2022/02/22 06:09:48;;;;;;;24.85;5.60;;;3.40;99.90;;;;;;5095483;28;20622;-58
2022/02/22 06:12:15;;;;;;;21.65;5.03;;;3.40;99.90;;;;;;5095131;28;20771;-57
2022/02/22 06:14:42;;;;;;;25.20;5.47;;;3.40;99.90;;;;;;5095683;28;20204;-57
2022/02/22 06:17:09;;;;;;;21.90;4.68;;;3.40;99.90;;;;;;5095554;28;20243;-57
2022/02/22 06:19:36;;;;;;;24.38;6.68;;;3.40;99.90;;;;;;5095295;28;20232;-58
2022/02/22 06:22:04;;;;;;;18.35;5.82;;;3.40;99.90;;;;;;5095754;28;20235;-58
2022/02/22 06:24:31;;;;;;;27.15;5.32;;;3.40;99.90;;;;;;5095018;28;20201;-58
2022/02/22 06:27:00;;;;;;;17.42;4.93;;;3.40;99.90;;;;;;5094979;28;20668;-58
2022/02/22 06:29:27;;;;;;;21.13;5.40;;;3.40;99.90;;;;;;5095132;28;20259;-58
2022/02/22 06:31:55;;;;;;;21.20;6.00;;;3.40;99.90;;;;;;5094049;28;20315;-59
2022/02/22 06:34:22;;;;;;;20.20;5.05;;;3.40;99.90;;;;;;5095131;28;20295;-58
2022/02/22 06:36:49;;;;;;;20.42;4.40;;;3.40;99.90;;;;;;5094826;28;20204;-58
2022/02/22 06:39:16;;;;;;;28.30;4.53;;;3.40;99.90;;;;;;5094710;28;20207;-58
2022/02/22 06:41:44;;;;;;;17.55;5.10;;;3.40;99.90;;;;;;5094981;28;20299;-58
2022/02/22 06:44:12;;;;;;;10.32;4.05;;;3.50;99.90;;;;;;5094855;28;20201;-58
2022/02/22 06:46:39;;;;;;;27.02;8.35;;;3.50;99.90;;;;;;5094754;28;20279;-58
2022/02/22 06:49:07;;;;;;;22.73;4.60;;;3.50;99.90;;;;;;5096241;28;20223;-58
2022/02/22 06:51:34;;;;;;;20.38;5.53;;;3.50;99.90;;;;;;5094398;28;20339;-57
2022/02/22 06:54:01;;;;;;;19.55;4.53;;;3.50;99.90;;;;;;5094605;28;20300;-55
2022/02/22 06:56:28;;;;;;;22.60;5.32;;;3.50;99.90;;;;;;5094134;28;20203;-58
2022/02/22 06:58:57;;;;;;;28.00;5.80;;;3.50;99.90;;;;;;5094365;28;20197;-56
2022/02/22 07:01:24;;;;;;;19.55;5.43;;;3.50;99.90;;;;;;5094343;28;20220;-57
2022/02/22 07:03:51;;;;;;;18.25;4.90;;;3.50;99.90;;;;;;5094273;28;20204;-56
2022/02/22 07:06:18;;;;;;;24.33;4.78;;;3.50;99.90;;;;;;5094359;28;20286;-55
2022/02/22 07:08:46;;;;;;;18.23;4.03;;;3.60;99.90;;;;;;5094634;28;20251;-55
2022/02/22 07:11:13;;;;;;;20.02;4.97;;;3.60;99.90;;;;;;5093999;28;20224;-56
2022/02/22 07:13:41;;;;;;;13.75;5.05;;;3.70;99.90;;;;;;5093702;28;20200;-57
2022/02/22 07:16:12;;;;;;;20.95;5.00;;;3.80;99.90;;;;;;5093737;28;20244;-57
2022/02/22 07:18:39;;;;;;;13.57;4.70;;;3.90;99.90;;;;;;5094116;28;20181;-58
2022/02/22 07:21:06;;;;;;;18.58;5.80;;;4.00;99.90;;;;;;5093658;28;20204;-58
2022/02/22 07:23:34;;;;;;;18.35;5.18;;;4.00;99.90;;;;;;5093830;28;20185;-59
2022/02/22 07:26:03;;;;;;;16.00;4.18;;;4.00;99.90;;;;;;5093480;28;20207;-59
2022/02/22 07:28:30;;;;;;;14.88;4.22;;;4.00;99.90;;;;;;5093392;28;20625;-57
2022/02/22 07:30:57;;;;;;;16.00;4.95;;;4.00;99.90;;;;;;5093706;28;20230;-59
2022/02/22 07:33:26;;;;;;;18.38;4.75;;;4.00;99.90;;;;;;5093351;28;20222;-58
2022/02/22 07:35:53;;;;;;;13.27;4.32;;;4.00;99.90;;;;;;5093378;28;20196;-58
2022/02/22 07:38:20;;;;;;;17.25;5.10;;;4.20;99.90;;;;;;5093442;28;20259;-58
2022/02/22 07:40:47;;;;;;;28.23;5.65;;;4.30;99.90;;;;;;5094042;28;20441;-56
2022/02/22 07:43:15;;;;;;;19.00;4.85;;;4.30;99.90;;;;;;5093547;28;20224;-57
2022/02/22 07:45:42;;;;;;;15.63;4.65;;;4.40;99.90;;;;;;5093138;28;20200;-57
2022/02/22 07:48:09;;;;;;;18.25;5.65;;;4.50;99.90;;;;;;5093302;28;20680;-58
2022/02/22 07:50:38;;;;;;;22.08;4.82;;;4.60;99.90;;;;;;5093337;28;20208;-56
2022/02/22 07:53:05;;;;;;;16.30;3.47;;;4.70;99.90;;;;;;5093185;28;20294;-56
2022/02/22 07:55:33;;;;;;;12.50;3.50;;;4.80;99.90;;;;;;5094091;28;20215;-58
2022/02/22 07:58:01;;;;;;;24.45;4.70;;;4.80;99.90;;;;;;5092857;28;20697;-58
2022/02/22 08:00:28;;;;;;;13.57;4.18;;;4.80;99.90;;;;;;5092913;28;20245;-59
2022/02/22 08:02:55;;;;;;;16.10;5.15;;;4.80;99.90;;;;;;5093037;28;20704;-58
2022/02/22 08:05:22;;;;;;;12.68;3.85;;;4.80;99.90;;;;;;5093313;28;20200;-56
2022/02/22 08:07:51;;;;;;;22.63;5.82;;;4.80;99.90;;;;;;5093261;28;20286;-57
2022/02/22 08:10:18;;;;;;;12.68;4.50;;;4.80;99.90;;;;;;5092834;28;20267;-57
2022/02/22 08:12:46;;;;;;;16.55;4.65;;;4.90;99.90;;;;;;5093795;28;20224;-59
2022/02/22 08:15:13;;;;;;;23.77;5.43;;;4.90;99.90;;;;;;5092923;28;20571;-57
2022/02/22 08:17:41;;;;;;;16.98;5.03;;;4.90;99.90;;;;;;5092933;28;20196;-57
2022/02/22 08:20:09;;;;;;;21.20;5.18;;;4.90;99.90;;;;;;5092855;28;20197;-56
2022/02/22 08:22:37;;;;;;;21.25;4.45;;;4.90;99.90;;;;;;5092350;28;20232;-58
2022/02/22 08:25:06;;;;;;;21.60;4.90;;;5.00;99.90;;;;;;5092662;28;20279;-57
2022/02/22 08:27:34;;;;;;;23.75;4.97;;;5.10;99.90;;;;;;5093140;28;20205;-57
2022/02/22 08:30:01;;;;;;;23.85;4.07;;;5.10;99.90;;;;;;5093026;28;20228;-57
2022/02/22 08:32:28;;;;;;;19.98;3.80;;;5.20;99.90;;;;;;5093069;28;20216;-58
2022/02/22 08:34:55;;;;;;;19.35;4.55;;;5.30;99.90;;;;;;5093096;28;20197;-58
2022/02/22 08:37:22;;;;;;;16.63;3.75;;;5.40;99.90;;;;;;5092793;28;20204;-58
2022/02/22 08:39:49;;;;;;;13.50;4.20;;;5.50;99.90;;;;;;5092825;28;20204;-58
2022/02/22 08:42:18;;;;;;;17.67;3.97;;;5.50;99.90;;;;;;5093230;28;20610;-58
2022/02/22 08:44:45;;;;;;;18.92;3.88;;;5.50;99.90;;;;;;5092575;28;20449;-57
2022/02/22 08:47:12;;;;;;;18.83;5.72;;;5.60;99.90;;;;;;5093045;28;20211;-58
2022/02/22 08:49:39;;;;;;;15.35;4.05;;;5.60;99.90;;;;;;5092977;28;20216;-57
2022/02/22 08:52:07;;;;;;;13.90;4.43;;;5.70;99.90;;;;;;5092452;28;20216;-58
2022/02/22 08:54:34;;;;;;;19.30;5.28;;;5.80;99.90;;;;;;5093848;28;20200;-57
2022/02/22 08:57:01;;;;;;;14.82;4.57;;;5.80;99.90;;;;;;5096821;28;20572;-57
2022/02/22 08:59:30;;;;;;;19.48;5.07;;;5.80;99.90;;;;;;5096391;28;20694;-57
2022/02/22 09:01:57;;;;;;;14.88;4.18;;;5.80;99.90;;;;;;5097365;28;20228;-57
2022/02/22 09:04:24;;;;;;;21.83;4.63;;;5.80;99.90;;;;;;5096665;28;20228;-56
2022/02/22 09:06:51;;;;;;;16.23;3.58;;;5.80;99.90;;;;;;5096589;28;20205;-58
2022/02/22 09:09:18;;;;;;;20.23;4.97;;;5.80;99.90;;;;;;5096521;28;20586;-58
2022/02/22 09:11:45;;;;;;;20.80;4.78;;;6.00;99.90;;;;;;5095919;28;20227;-58
2022/02/22 09:14:21;;;;;;;20.20;3.78;;;6.00;99.90;;;;;;5096193;28;20204;-58
2022/02/22 09:16:49;;;;;;;21.90;3.70;;;6.10;99.90;;;;;;5096158;28;20187;-57
2022/02/22 09:19:16;;;;;;;14.60;4.57;;;6.10;99.90;;;;;;5096374;28;20204;-58
2022/02/22 09:21:43;;;;;;;10.57;3.83;;;6.20;99.90;;;;;;5095867;28;20232;-58
2022/02/22 09:24:11;;;;;;;14.02;4.43;;;6.20;99.90;;;;;;5096071;28;20204;-58
2022/02/22 09:26:38;;;;;;;18.13;4.95;;;6.40;99.90;;;;;;5096021;28;20214;-58
2022/02/22 09:29:05;;;;;;;15.40;3.75;;;6.50;99.90;;;;;;5095645;28;20256;-58
2022/02/22 09:31:32;;;;;;;23.83;3.83;;;6.50;99.90;;;;;;5095667;28;20297;-58
2022/02/22 09:34:01;;;;;;;14.85;3.13;;;6.60;99.90;;;;;;5095842;28;20200;-58
2022/02/22 09:36:28;;;;;;;21.58;4.40;;;6.60;99.90;;;;;;5095436;28;20204;-58
2022/02/22 09:38:55;;;;;;;17.63;4.35;;;6.70;99.90;;;;;;5096734;28;20212;-59
2022/02/22 09:41:22;;;;;;;14.80;4.90;;;6.80;99.90;;;;;;5097407;28;20228;-57
2022/02/22 09:43:49;;;;;;;16.25;4.78;;;6.80;99.90;;;;;;5105631;28;20224;-58
2022/02/22 09:46:16;;;;;;;22.00;4.57;;;6.90;99.90;;;;;;5106459;28;20219;-58
2022/02/22 09:48:43;;;;;;;13.88;3.28;;;7.00;99.90;;;;;;5105142;28;20196;-57
2022/02/22 09:51:12;;;;;;;17.92;4.45;;;6.90;99.90;;;;;;5103916;28;20205;-57
2022/02/22 09:53:41;;;;;;;13.35;3.67;;;7.00;99.90;;;;;;5101285;28;20188;-58
2022/02/22 09:56:08;;;;;;;17.00;3.72;;;7.10;99.90;;;;;;5096076;28;20664;-56
2022/02/22 09:58:35;;;;;;;14.07;4.35;;;7.30;99.90;;;;;;5095551;28;20286;-58
2022/02/22 10:01:04;;;;;;;9.80;3.15;;;7.40;99.90;;;;;;5095285;28;20307;-57
2022/02/22 10:03:31;;;;;;;26.40;6.15;;;7.60;99.90;;;;;;5095389;28;20212;-58
2022/02/22 10:06:00;;;;;;;14.90;5.63;;;7.60;99.90;;;;;;5095184;28;20207;-58
2022/02/22 10:08:31;;;;;;;16.63;3.90;;;7.60;99.10;;;;;;5094793;28;20200;-59
2022/02/22 10:11:04;;;;;;;16.10;3.63;;;7.60;99.40;;;;;;5094945;28;20586;-59
2022/02/22 10:13:31;;;;;;;20.75;3.83;;;7.50;98.70;;;;;;5094769;28;20640;-58
2022/02/22 10:15:59;;;;;;;19.50;4.00;;;7.50;98.90;;;;;;5094986;28;20204;-59
2022/02/22 10:18:26;;;;;;;10.95;4.00;;;7.40;98.50;;;;;;5094856;28;20204;-60
2022/02/22 10:20:54;;;;;;;12.48;3.03;;;7.40;98.20;;;;;;5094658;28;20196;-60
2022/02/22 10:23:30;;;;;;;13.20;3.47;;;7.40;97.20;;;;;;5094850;28;20200;-59
2022/02/22 10:25:58;;;;;;;18.63;4.13;;;7.40;97.00;;;;;;5094792;28;20200;-58
2022/02/22 10:28:26;;;;;;;23.63;4.03;;;7.40;97.00;;;;;;5094419;28;20547;-58
2022/02/22 10:30:54;;;;;;;15.65;3.60;;;7.50;96.90;;;;;;5094015;28;20216;-59
2022/02/22 10:33:22;;;;;;;14.20;4.63;;;7.50;96.70;;;;;;5094292;28;20623;-58
2022/02/22 10:35:52;;;;;;;14.57;3.85;;;7.50;96.60;;;;;;5094435;28;20201;-58
2022/02/22 10:38:23;;;;;;;17.83;4.93;;;7.60;96.30;;;;;;5094336;28;20207;-58
2022/02/22 10:41:01;;;;;;;14.05;3.95;;;7.50;95.90;;;;;;5094194;28;20181;-58
2022/02/22 10:43:30;;;;;;;16.95;3.92;;;7.50;96.40;;;;;;5094663;28;20241;-58
2022/02/22 10:45:59;;;;;;;15.15;3.13;;;7.50;96.50;;;;;;5094514;28;20257;-58
2022/02/22 10:48:32;;;;;;;14.00;4.00;;;7.60;96.10;;;;;;5094319;28;20215;-58
2022/02/22 10:51:00;;;;;;;11.88;3.60;;;7.60;95.40;;;;;;5093928;28;20738;-59
2022/02/22 10:53:30;;;;;;;17.83;3.65;;;7.70;95.40;;;;;;5093887;28;20703;-58
2022/02/22 10:55:59;;;;;;;20.05;4.85;;;7.90;94.20;;;;;;5093932;28;20204;-58
2022/02/22 10:58:26;;;;;;;20.23;4.47;;;8.00;94.30;;;;;;5094719;28;20200;-58
2022/02/22 11:00:54;;;;;;;11.63;2.55;;;8.10;93.10;;;;;;5094165;28;20193;-58
2022/02/22 11:03:22;;;;;;;12.18;3.35;;;8.20;92.40;;;;;;5094176;28;20316;-60
2022/02/22 11:05:50;;;;;;;13.15;3.25;;;8.20;91.70;;;;;;5093985;28;20201;-58
2022/02/22 11:08:28;;;;;;;16.58;4.95;;;8.20;91.10;;;;;;5093871;28;20207;-57
2022/02/22 11:11:02;;;;;;;19.35;3.40;;;8.10;90.80;;;;;;5093934;28;20215;-58
2022/02/22 11:13:39;;;;;;;14.18;3.25;;;8.20;91.70;;;;;;5093820;28;20181;-58
2022/02/22 11:16:12;;;;;;;14.32;3.92;;;8.30;91.50;;;;;;5093843;28;20192;-57
2022/02/22 11:18:45;;;;;;;12.25;3.20;;;8.40;91.00;;;;;;5093524;28;20188;-59
2022/02/22 11:21:13;;;;;;;13.77;3.92;;;8.50;90.90;;;;;;5093810;28;20306;-57
2022/02/22 11:23:40;;;;;;;12.77;3.47;;;8.60;90.20;;;;;;5094061;28;20211;-57
2022/02/22 11:26:12;;;;;;;10.45;3.20;;;8.60;90.10;;;;;;5093077;28;20204;-57
2022/02/22 11:28:42;;;;;;;11.85;3.33;;;8.70;89.40;;;;;;5093488;28;20181;-59
2022/02/22 11:31:12;;;;;;;14.75;4.13;;;8.70;89.10;;;;;;5093578;28;20224;-60
2022/02/22 11:33:45;;;;;;;11.85;3.42;;;8.70;87.90;;;;;;5093902;28;20200;-59
2022/02/22 11:36:13;;;;;;;10.23;3.97;;;8.70;88.40;;;;;;5092943;28;20300;-58
2022/02/22 11:38:42;;;;;;;16.17;4.40;;;8.80;89.00;;;;;;5093049;28;20207;-57
2022/02/22 11:41:20;;;;;;;15.63;2.90;;;9.00;87.20;;;;;;5092548;28;20199;-58
2022/02/22 11:43:56;;;;;;;11.93;4.45;;;9.00;86.30;;;;;;5094007;28;20192;-59
2022/02/22 11:46:40;;;;;;;8.85;3.55;;;9.10;86.00;;;;;;5093346;28;20226;-59
2022/02/22 11:49:10;;;;;;;8.90;3.10;;;9.20;85.90;;;;;;5092977;28;20549;-60
2022/02/22 11:51:45;;;;;;;16.02;4.15;;;9.20;85.70;;;;;;5092861;28;20493;-59
2022/02/22 11:54:21;;;;;;;13.77;3.15;;;9.30;85.40;;;;;;5093150;28;20585;-60
2022/02/22 11:57:02;;;;;;;13.57;3.25;;;9.30;85.70;;;;;;5092705;28;20672;-60
2022/02/22 11:59:31;;;;;;;10.82;3.40;;;9.30;85.80;;;;;;5092603;28;20191;-60
2022/02/22 12:01:59;;;;;;;11.73;2.85;;;9.40;86.00;;;;;;5092518;28;20223;-59
2022/02/22 12:04:27;;;;;;;13.80;3.47;;;9.40;85.60;;;;;;5092902;28;20227;-59
2022/02/22 12:06:56;;;;;;;13.93;3.65;;;9.40;85.50;;;;;;5092702;28;20200;-60
2022/02/22 12:09:37;;;;;;;11.38;3.28;;;9.40;85.40;;;;;;5092688;28;20290;-59
2022/02/22 12:12:09;;;;;;;17.90;4.10;;;9.50;85.60;;;;;;5092847;28;20569;-58
2022/02/22 12:14:37;;;;;;;13.48;4.30;;;9.40;85.80;;;;;;5092715;28;20188;-60
2022/02/22 12:17:10;;;;;;;9.52;3.00;;;9.40;85.80;;;;;;5092878;28;20200;-59
2022/02/22 12:19:40;;;;;;;8.57;2.85;;;9.30;86.30;;;;;;5092632;28;20207;-60
2022/02/22 12:22:08;;;;;;;13.60;3.38;;;9.30;86.60;;;;;;5092630;28;20223;-60
2022/02/22 12:24:35;;;;;;;10.57;3.10;;;9.30;87.10;;;;;;5092371;28;20207;-60
2022/02/22 12:27:13;;;;;;;8.50;3.30;;;9.40;87.30;;;;;;5092179;28;20207;-59
2022/02/22 12:29:41;;;;;;;6.70;2.50;;;9.50;87.30;;;;;;5094274;28;20449;-60
2022/02/22 12:32:08;;;;;;;9.93;3.53;;;9.50;87.30;;;;;;5096167;28;20726;-58
2022/02/22 12:34:36;;;;;;;9.90;3.10;;;9.60;87.80;;;;;;5096576;28;20219;-59
2022/02/22 12:37:05;;;;;;;16.02;3.80;;;9.60;87.60;;;;;;5096664;28;20699;-58
2022/02/22 12:39:34;;;;;;;9.10;3.15;;;9.60;87.20;;;;;;5096328;28;20196;-58
2022/02/22 12:42:02;;;;;;;11.57;3.40;;;9.60;87.70;;;;;;5096606;28;20273;-58
2022/02/22 12:44:31;;;;;;;14.20;3.30;;;9.60;88.20;;;;;;5096717;28;20232;-58
2022/02/22 12:47:01;;;;;;;10.45;3.38;;;9.60;87.50;;;;;;5096693;28;20201;-59
2022/02/22 12:49:29;;;;;;;18.40;3.30;;;9.60;87.50;;;;;;5096943;28;20201;-57
2022/02/22 12:52:01;;;;;;;11.23;2.53;;;9.70;87.70;;;;;;5096411;28;20235;-59
2022/02/22 12:54:29;;;;;;;9.40;3.10;;;9.70;87.40;;;;;;5096489;28;20231;-58